Aurora Springs, Missouri
Current Conditions -  °F | °C
As of 6:55 AM on Thursday 27 Nov 2014 (Local Time) from KAIZ Reporting Station
Overcast Overcast  
Wind Chill: -4°   Ceiling: 1500
Heat Index: -1°   Visibility: 9mi
Dew Point: -5°   Wind: 6mph
Humidity: 75%   Direction: 320°NW
Pressure: 30.47"   Gusts: NA
Location:  38.333°N, 92.5524°W
Report Text: KAIZ 271255Z AUTO 32005KT 9SM OVC015 M01/M05 A3047 RMK AO1
Loading
Personal Weather Stations






























Interactive Weather Map New forecast layout! Learn more

10-Day Weather Forecast

Advertisements
Track Severe Weather on mobile